M I D A S
Marine Information and Data Acquisition System
Tripno 1779 of the Zeeleeuw from 2009-09-17 06:40:37 to 2009-09-17 13:40:42
Back to CruiseResearch ActivitiesStationsMapUnderway DataData graphs

EquipmentUnitsComment
TimeDGPSUTC
LatitudeDGPSDM.mWGS84
LongitudeDGPSDM.mWGS84
HeadingGyrodeg 
SOGDGPSknotsSpeed over ground
COGDGPSdegCourse over ground
DepthEcho soundermeters200 kHz
Missing or incorrect values are displayed as -999
Navigation data collected by the RV Zeeleeuw from 2009-09-17 06:42:19 to 2009-09-17 13:50:49
Time Latitude Longitude Heading SOG COG Depth
2009-09-17 06:43:27 51°13.677 2°55.888 111.8 3.6 289 -999
2009-09-17 06:44:27 51°13.707 2°55.795 128.6 4.4 304 -999
2009-09-17 06:45:27 51°13.758 2°55.711 147 3.5 325 -999
2009-09-17 06:46:27 51°13.806 2°55.663 151 4.2 330 -999
2009-09-17 06:47:27 51°13.873 2°55.607 163.4 4.3 340 -999
2009-09-17 06:48:27 51°13.929 2°55.602 204.2 2.6 16 -999
2009-09-17 06:49:27 51°13.949 2°55.61 232 0.7 261 10.2
2009-09-17 06:50:25 51°13.957 2°55.557 300.6 3.1 305 10.8
2009-09-17 06:51:25 51°14.036 2°55.479 334.7 8 332 10.5
2009-09-17 06:52:24 51°14.171 2°55.359 332.6 9.9 328 10.4
2009-09-17 06:53:24 51°14.292 2°55.179 311.9 10.6 308 10.1
2009-09-17 06:54:24 51°14.396 2°54.951 306.4 10.1 303 9
2009-09-17 06:55:24 51°14.518 2°54.749 329.8 10.7 320 10.1
2009-09-17 06:56:24 51°14.653 2°54.564 329.6 10.7 320 9.5
2009-09-17 06:57:24 51°14.795 2°54.39 333.6 10.8 323 9.6
2009-09-17 06:58:24 51°14.938 2°54.223 334.3 10.5 325 8.1
2009-09-17 06:59:24 51°15.084 2°54.081 341.6 10.2 328 9.4
2009-09-17 07:00:24 51°15.226 2°53.95 342.9 10 332 8.7
2009-09-17 07:01:24 51°15.375 2°53.815 341.6 10.3 328 9.1
2009-09-17 07:02:24 51°15.522 2°53.67 341.9 10.5 329 10.1
2009-09-17 07:03:24 51°15.669 2°53.526 341.5 10.5 328 11.2
2009-09-17 07:04:24 51°15.818 2°53.382 346.5 10.2 335 10.8
2009-09-17 07:05:24 51°15.975 2°53.277 349.2 10 338 11.9
2009-09-17 07:06:24 51°16.128 2°53.166 347.4 10.1 335 12.2
2009-09-17 07:07:24 51°16.277 2°53.06 348.4 10 337 11.7
2009-09-17 07:08:24 51°16.43 2°52.951 346.3 10.1 336 11.7
2009-09-17 07:09:24 51°16.584 2°52.847 347.9 9.8 337 10.9
2009-09-17 07:10:24 51°16.735 2°52.746 347.1 9.6 338 9.8
2009-09-17 07:11:24 51°16.88 2°52.65 348.3 9.6 338 9.6
2009-09-17 07:12:24 51°17.031 2°52.551 347.5 9.8 341 9.6
2009-09-17 07:13:24 51°17.184 2°52.479 358.1 9.6 350 9.5
2009-09-17 07:14:24 51°17.342 2°52.458 7.6 9.5 359 9.7
2009-09-17 07:15:24 51°17.498 2°52.458 8.4 9.4 359 9.7
2009-09-17 07:16:24 51°17.653 2°52.456 10.2 9.3 -999 9.9
2009-09-17 07:17:24 51°17.805 2°52.473 12 9.3 5 10.4
2009-09-17 07:18:24 51°17.953 2°52.496 16.3 8.6 8 9.7
2009-09-17 07:19:24 51°18.089 2°52.56 33.3 8.5 32 10.8
2009-09-17 07:20:24 51°18.187 2°52.724 56.4 8.8 58 10.7
2009-09-17 07:21:24 51°18.263 2°52.929 59.6 8.9 58 10.6
2009-09-17 07:22:24 51°18.343 2°53.133 57.8 9.1 57 10.3
2009-09-17 07:23:24 51°18.425 2°53.338 57.9 9.3 58 11.3
2009-09-17 07:24:24 51°18.503 2°53.547 58.2 9 58 10.7
2009-09-17 07:25:24 51°18.582 2°53.754 57.7 9 59 10.8
2009-09-17 07:26:24 51°18.653 2°53.967 64.3 9.1 63 11
2009-09-17 07:27:24 51°18.708 2°54.197 68 9.4 71 11.3
2009-09-17 07:28:24 51°18.761 2°54.427 67.7 9.3 74 11.4
2009-09-17 07:29:24 51°18.815 2°54.658 67.3 9.3 71 11
2009-09-17 07:30:24 51°18.868 2°54.888 65.7 9.1 66 10.9
2009-09-17 07:31:24 51°18.921 2°55.115 66.9 9.1 69 11
2009-09-17 07:32:24 51°18.975 2°55.344 66.5 9.1 68 11.1
2009-09-17 07:33:24 51°19.03 2°55.568 65.5 9.1 68 11.1
2009-09-17 07:34:24 51°19.088 2°55.796 65.6 9.3 68 10.9
2009-09-17 07:35:24 51°19.144 2°56.022 65.5 9.2 66 10.4
2009-09-17 07:36:24 51°19.205 2°56.25 65.4 9.2 65 10.4
2009-09-17 07:37:24 51°19.263 2°56.477 66.2 9.2 68 10.6
2009-09-17 07:38:24 51°19.32 2°56.707 66 9.4 71 10.5
2009-09-17 07:39:24 51°19.378 2°56.931 65.2 9.1 69 10.2
2009-09-17 07:40:24 51°19.436 2°57.157 64.7 9.2 69 10.2
2009-09-17 07:41:24 51°19.496 2°57.381 64.9 9.1 66 10.4
2009-09-17 07:42:24 51°19.554 2°57.607 66.1 9.1 67 10.2
2009-09-17 07:43:24 51°19.613 2°57.833 65.7 9.1 66 9.6
2009-09-17 07:44:24 51°19.67 2°58.061 68.3 9.4 71 10
2009-09-17 07:45:24 51°19.722 2°58.296 69 9.5 73 10.2
2009-09-17 07:46:24 51°19.773 2°58.531 69.8 9.5 71 9.6
2009-09-17 07:47:24 51°19.824 2°58.767 69.5 9.5 71 9.7
2009-09-17 07:48:24 51°19.879 2°59.001 66.2 9.4 68 9.4
2009-09-17 07:49:24 51°19.939 2°59.232 65.1 9.4 67 9.6
2009-09-17 07:50:24 51°19.998 2°59.464 66.1 9.4 69 10.2
2009-09-17 07:51:24 51°20.056 2°59.696 67.5 9.4 71 10
2009-09-17 07:52:24 51°20.115 2°59.926 65.8 9.4 71 10.5
2009-09-17 07:53:24 51°20.176 3°0.155 65.6 9.5 71 9.7
2009-09-17 07:54:24 51°20.234 3°0.384 67.3 9.2 70 9.4
2009-09-17 07:55:24 51°20.294 3°0.617 66.2 9.6 68 9.6
2009-09-17 07:56:24 51°20.352 3°0.85 66.3 9.5 70 10
2009-09-17 07:57:24 51°20.412 3°1.079 66.3 9.4 68 9.8
2009-09-17 07:58:24 51°20.47 3°1.313 66.7 9.5 70 9.6
2009-09-17 07:59:24 51°20.53 3°1.54 65.5 9.2 71 9.4
2009-09-17 08:00:24 51°20.572 3°1.778 73.8 9.5 78 9.7
2009-09-17 08:01:24 51°20.606 3°2.027 74.8 9.5 79 9.5
2009-09-17 08:02:24 51°20.634 3°2.278 77.1 9.7 78 9.8
2009-09-17 08:03:24 51°20.666 3°2.529 74.9 9.6 84 8.9
2009-09-17 08:04:24 51°20.697 3°2.779 76.3 9.6 75 9
2009-09-17 08:05:24 51°20.733 3°3.027 73.3 9.5 78 8.9
2009-09-17 08:06:24 51°20.765 3°3.277 76 9.6 79 9.8
2009-09-17 08:07:24 51°20.796 3°3.528 76.3 9.6 81 9.1
2009-09-17 08:08:24 51°20.828 3°3.777 75.1 9.5 77 8.9
2009-09-17 08:09:24 51°20.862 3°4.026 74.8 9.6 78 8.8
2009-09-17 08:10:24 51°20.897 3°4.277 76.2 9.8 78 9.3
2009-09-17 08:11:24 51°20.928 3°4.529 77 9.6 77 9
2009-09-17 08:12:24 51°20.956 3°4.785 76.9 9.9 79 9.4
2009-09-17 08:13:24 51°20.983 3°5.041 78.8 9.7 79 9.1
2009-09-17 08:14:24 51°21.01 3°5.296 78 9.7 82 8.7
2009-09-17 08:15:24 51°21.037 3°5.551 78.5 9.7 77 9.1
2009-09-17 08:16:24 51°21.067 3°5.808 78.2 9.9 80 9
2009-09-17 08:17:24 51°21.098 3°6.064 76.7 9.8 80 8.9
2009-09-17 08:18:24 51°21.126 3°6.321 77.7 9.9 87 9
2009-09-17 08:19:24 51°21.146 3°6.578 79.2 9.8 86 8.7
2009-09-17 08:20:24 51°21.166 3°6.836 78.9 9.8 82 8.8
2009-09-17 08:21:24 51°21.185 3°7.097 82.5 9.8 81 8.4
2009-09-17 08:22:24 51°21.203 3°7.359 80.4 9.9 85 8.7
2009-09-17 08:23:24 51°21.222 3°7.623 80.6 10 79 8.4
2009-09-17 08:24:24 51°21.246 3°7.884 80.8 10.1 87 8.4
2009-09-17 08:25:24 51°21.267 3°8.148 80.9 10 81 8.2
2009-09-17 08:26:24 51°21.289 3°8.413 79.5 10.1 85 8.7
2009-09-17 08:27:24 51°21.312 3°8.678 79.2 10.2 84 8.8
2009-09-17 08:28:24 51°21.334 3°8.946 79.5 10.2 85 9
2009-09-17 08:29:24 51°21.35 3°9.185 80.9 6.7 81 9.3
2009-09-17 08:30:24 51°21.389 3°9.255 8.1 2.7 347 10.1
2009-09-17 08:31:24 51°21.423 3°9.188 318.4 3.7 301 9.7
2009-09-17 08:32:24 51°21.456 3°9.117 331.6 3.1 309 9.9
2009-09-17 08:33:24 51°21.489 3°9.065 342.2 2.5 317 10
2009-09-17 08:34:24 51°21.515 3°9.025 343.8 1.7 314 10.2
2009-09-17 08:35:24 51°21.538 3°8.975 326.3 3.1 301 10.2
2009-09-17 08:36:24 51°21.561 3°8.88 299.1 4.5 282 10.8
2009-09-17 08:37:24 51°21.569 3°8.758 288.2 4.7 278 10
2009-09-17 08:38:24 51°21.582 3°8.637 296.8 4 281 10.2
2009-09-17 08:39:24 51°21.599 3°8.55 312.8 3.1 291 10.4
2009-09-17 08:40:24 51°21.626 3°8.478 327.4 3.2 307 10.4
2009-09-17 08:41:24 51°21.665 3°8.413 335.3 3.6 317 10.3
2009-09-17 08:42:24 51°21.708 3°8.343 328.2 4 312 10.9
2009-09-17 08:43:24 51°21.75 3°8.264 315.8 4 301 11.3
2009-09-17 08:44:24 51°21.774 3°8.176 313.1 3.3 293 11
2009-09-17 08:45:24 51°21.797 3°8.1 319.6 3 299 11.6
2009-09-17 08:46:24 51°21.825 3°8.034 326.2 3.1 309 11.5
2009-09-17 08:47:36 51°21.867 3°7.951 328.5 3.3 310 11.6
2009-09-17 08:48:36 51°21.907 3°7.894 339.8 3.2 322 11.6
2009-09-17 08:49:36 51°21.949 3°7.846 342.7 3.2 326 12
2009-09-17 08:50:36 51°21.99 3°7.791 339.2 3.2 315 12.4
2009-09-17 08:51:36 51°22.03 3°7.74 344.4 3 324 12
2009-09-17 08:52:36 51°22.072 3°7.692 342.2 3.1 323 12.3
2009-09-17 08:53:36 51°22.113 3°7.64 340.4 3.2 320 12.6
2009-09-17 08:54:36 51°22.154 3°7.587 340.4 3.3 320 12.6
2009-09-17 08:55:36 51°22.198 3°7.536 342.2 3.3 323 12.9
2009-09-17 08:56:36 51°22.24 3°7.482 342.2 3.3 323 12.6
2009-09-17 08:57:36 51°22.279 3°7.432 342.7 2.9 321 13
2009-09-17 08:58:36 51°22.32 3°7.383 342.5 3 322 12.8
2009-09-17 08:59:36 51°22.361 3°7.334 342.5 3.1 323 12.8
2009-09-17 09:00:36 51°22.402 3°7.283 340 3.2 323 12.9
2009-09-17 09:01:36 51°22.441 3°7.228 337.9 3.1 320 13
2009-09-17 09:02:36 51°22.477 3°7.174 337.1 3 318 13.1
2009-09-17 09:03:36 51°22.514 3°7.121 339 3.1 318 13.4
2009-09-17 09:04:36 51°22.554 3°7.069 337.5 3.2 322 13.4
2009-09-17 09:05:36 51°22.593 3°7.017 335.2 3.1 318 13.1
2009-09-17 09:06:36 51°22.634 3°6.967 336.4 3.1 324 13
2009-09-17 09:07:36 51°22.671 3°6.913 331.4 2.8 316 13.6
2009-09-17 09:08:36 51°22.702 3°6.856 329.8 2.8 312 13
2009-09-17 09:09:36 51°22.734 3°6.801 330.6 2.9 313 13.3
2009-09-17 09:10:36 51°22.769 3°6.75 334.4 2.9 321 13.3
2009-09-17 09:11:36 51°22.804 3°6.7 332.5 2.7 319 12.6
2009-09-17 09:12:36 51°22.838 3°6.654 333.5 2.7 322 12.6
2009-09-17 09:13:36 51°22.871 3°6.608 332.5 2.7 319 12.6
2009-09-17 09:14:36 51°22.903 3°6.564 337.5 2.4 325 12.4
2009-09-17 09:15:36 51°22.932 3°6.543 351.3 1.1 333 12.4
2009-09-17 09:16:36 51°22.937 3°6.53 350.7 0.4 256 12.5
2009-09-17 09:17:36 51°22.932 3°6.521 350.2 0.7 218 12.8
2009-09-17 09:18:36 51°22.921 3°6.513 345.9 0.9 197 12.7
2009-09-17 09:19:36 51°22.905 3°6.503 328.1 1 228 12.5
2009-09-17 09:20:36 51°22.912 3°6.427 293.5 5.6 287 12.8
2009-09-17 09:21:36 51°22.906 3°6.222 267.4 9.7 260 12.3
2009-09-17 09:22:36 51°22.872 3°5.948 260 11 253 12.8
2009-09-17 09:23:36 51°22.821 3°5.67 258.5 11 251 12.1
2009-09-17 09:24:36 51°22.767 3°5.394 252.8 11 248 13
2009-09-17 09:25:36 51°22.743 3°5.116 274.2 10.5 268 12.6
2009-09-17 09:26:36 51°22.732 3°4.839 265.8 10.5 260 12.7
2009-09-17 09:27:36 51°22.651 3°4.583 240.5 11 234 13.1
2009-09-17 09:28:36 51°22.54 3°4.355 237.4 10.6 234 12.8
2009-09-17 09:29:36 51°22.432 3°4.121 240.2 10.9 239 12.5
2009-09-17 09:30:36 51°22.329 3°3.879 240 10.9 234 12.8
2009-09-17 09:31:36 51°22.234 3°3.635 241.6 10.9 242 12.6
2009-09-17 09:32:36 51°22.136 3°3.39 241 11.1 241 12.9
2009-09-17 09:33:36 51°22.039 3°3.144 240.7 10.9 240 12.6
2009-09-17 09:34:36 51°21.951 3°2.888 247.1 10.9 246 12.4
2009-09-17 09:35:36 51°21.87 3°2.628 246.8 10.9 242 12.7
2009-09-17 09:36:36 51°21.792 3°2.365 249.2 11 243 13.1
2009-09-17 09:37:36 51°21.72 3°2.102 249.4 10.7 245 12.6
2009-09-17 09:38:36 51°21.652 3°1.838 250.9 10.7 254 12.8
2009-09-17 09:39:36 51°21.588 3°1.577 252.1 10.5 244 12.9
2009-09-17 09:40:36 51°21.51 3°1.324 242.8 10.8 238 12.6
2009-09-17 09:41:36 51°21.413 3°1.09 238 10.8 239 12.8
2009-09-17 09:42:36 51°21.314 3°0.859 239.7 10.5 236 12.7
2009-09-17 09:43:36 51°21.218 3°0.623 240.4 10.7 235 13
2009-09-17 09:44:36 51°21.123 3°0.385 240.6 10.8 241 12.7
2009-09-17 09:45:36 51°21.027 3°0.145 238.1 10.7 236 12.5
2009-09-17 09:46:36 51°20.932 2°59.906 241.1 10.5 235 12.5
2009-09-17 09:47:36 51°20.839 2°59.667 242.1 10.5 241 12.8
2009-09-17 09:48:36 51°20.743 2°59.433 241.8 10.4 239 12.9
2009-09-17 09:49:33 51°20.655 2°59.207 245 10.4 238 13.4
2009-09-17 09:50:53 51°20.533 2°58.886 242.6 10.3 245 12.8
2009-09-17 09:51:54 51°20.441 2°58.643 241.8 10.4 238 12.9
2009-09-17 09:52:54 51°20.35 2°58.407 242 10.6 239 12.7
2009-09-17 09:53:54 51°20.258 2°58.168 240.1 10.8 233 13.1
2009-09-17 09:54:54 51°20.167 2°57.936 240.7 10.3 239 13.1
2009-09-17 09:55:54 51°20.077 2°57.705 241.1 10.2 238 13
2009-09-17 09:56:54 51°19.984 2°57.474 240 10.5 231 13.5
2009-09-17 09:57:54 51°19.893 2°57.242 242.5 10.1 243 13.1
2009-09-17 09:58:54 51°19.8 2°57.015 240.1 10.3 235 13.5
2009-09-17 09:59:53 51°19.711 2°56.787 241.6 10.3 237 13.5
2009-09-17 10:00:53 51°19.622 2°56.553 242.8 10.2 239 13.4
2009-09-17 10:01:54 51°19.53 2°56.321 241.1 10.2 241 13.6
2009-09-17 10:02:54 51°19.442 2°56.09 242.5 9.9 240 13.1
2009-09-17 10:03:54 51°19.356 2°55.858 242.9 10.2 238 13.9
2009-09-17 10:04:54 51°19.267 2°55.631 239.9 10.3 231 13.9
2009-09-17 10:05:54 51°19.183 2°55.4 243.1 9.9 241 13.4
2009-09-17 10:06:53 51°19.098 2°55.176 241 10.1 232 14.1
2009-09-17 10:07:54 51°19.015 2°54.941 242.8 10 241 13.5
2009-09-17 10:08:54 51°18.929 2°54.711 241.1 10 235 13.7
2009-09-17 10:09:54 51°18.844 2°54.483 239.8 10.1 237 13.7
2009-09-17 10:10:54 51°18.761 2°54.249 242.4 10 241 13.7
2009-09-17 10:11:54 51°18.679 2°54.018 242 10 244 13.4
2009-09-17 10:12:54 51°18.591 2°53.79 238.5 10.3 233 13.7
2009-09-17 10:13:54 51°18.508 2°53.561 242.5 10.1 245 13.5
2009-09-17 10:14:54 51°18.426 2°53.328 240.1 10.1 241 13.5
2009-09-17 10:15:53 51°18.345 2°53.103 241.3 9.9 243 13.5
2009-09-17 10:16:54 51°18.264 2°52.868 243.1 10 244 13.2
2009-09-17 10:17:54 51°18.183 2°52.635 239.6 10.1 243 12.8
2009-09-17 10:18:54 51°18.104 2°52.406 241.3 10 241 12.9
2009-09-17 10:19:54 51°18.021 2°52.176 241.4 10 236 13.5
2009-09-17 10:20:54 51°17.93 2°51.955 236.3 10.2 233 13.1
2009-09-17 10:21:54 51°17.843 2°51.729 240.6 9.8 242 12.7
2009-09-17 10:22:54 51°17.756 2°51.504 237.6 10 236 12.8
2009-09-17 10:23:54 51°17.667 2°51.284 238.7 9.6 236 12.3
2009-09-17 10:24:54 51°17.581 2°51.063 239.2 9.9 240 12
2009-09-17 10:25:54 51°17.498 2°50.837 240.1 10 246 12.3
2009-09-17 10:26:54 51°17.412 2°50.615 238.4 9.9 238 13
2009-09-17 10:27:54 51°17.329 2°50.397 237.4 9.8 243 12.2
2009-09-17 10:28:54 51°17.236 2°50.188 230.2 9.9 229 12.7
2009-09-17 10:29:54 51°17.13 2°49.993 228.5 9.7 227 12.4
2009-09-17 10:30:54 51°17.022 2°49.801 227.3 9.7 222 12.8
2009-09-17 10:31:54 51°16.915 2°49.615 228.2 9.4 235 11.7
2009-09-17 10:32:54 51°16.808 2°49.434 228.3 9.3 224 11.9
2009-09-17 10:33:53 51°16.706 2°49.252 230.8 9.1 235 11.1
2009-09-17 10:34:54 51°16.602 2°49.066 227.3 9.4 228 12.6
2009-09-17 10:35:54 51°16.501 2°48.882 226.5 9.4 221 14.9
2009-09-17 10:36:54 51°16.397 2°48.699 229.2 9.2 229 17.8
2009-09-17 10:37:54 51°16.301 2°48.509 233.1 9.3 230 17.7
2009-09-17 10:38:53 51°16.217 2°48.309 239.5 9.3 233 18.1
2009-09-17 10:39:54 51°16.134 2°48.093 240.5 9.5 240 18.2
2009-09-17 10:40:54 51°16.051 2°47.887 237.4 9.3 235 18.2
2009-09-17 10:41:54 51°15.966 2°47.682 237.8 9.4 231 18.1
2009-09-17 10:42:54 51°15.88 2°47.472 239 9.5 236 18.5
2009-09-17 10:43:54 51°15.792 2°47.262 237.4 9.5 236 18.6
2009-09-17 10:44:54 51°15.706 2°47.049 241.7 9.3 243 17.7
2009-09-17 10:45:54 51°15.631 2°46.829 243.6 9.7 241 18.5
2009-09-17 10:46:54 51°15.563 2°46.603 243.5 9.4 241 18.4
2009-09-17 10:47:54 51°15.494 2°46.38 244.1 9.5 240 18.5
2009-09-17 10:48:54 51°15.422 2°46.157 243.8 9.4 236 18.3
2009-09-17 10:49:53 51°15.351 2°45.939 243.4 9.5 236 18.8
2009-09-17 10:50:54 51°15.281 2°45.714 243.8 9.5 248 18.2
2009-09-17 10:51:54 51°15.209 2°45.492 242.9 9.6 247 18.4
2009-09-17 10:52:54 51°15.138 2°45.267 246.2 9.4 244 19.1
2009-09-17 10:53:54 51°15.063 2°45.042 242.3 9.4 248 18.6
2009-09-17 10:54:54 51°14.991 2°44.821 242.5 9.5 246 19.4
2009-09-17 10:55:54 51°14.922 2°44.596 242.7 9.5 239 19
2009-09-17 10:56:54 51°14.851 2°44.367 242.7 9.8 243 18.9
2009-09-17 10:57:54 51°14.779 2°44.141 241.6 9.4 249 19.2
2009-09-17 10:58:54 51°14.707 2°43.92 242.9 9.5 234 19.3
2009-09-17 10:59:54 51°14.638 2°43.695 244.5 9.6 249 19.6
2009-09-17 11:00:54 51°14.566 2°43.468 242.6 9.6 243 19.5
2009-09-17 11:01:54 51°14.497 2°43.238 244.1 9.7 248 19.3
2009-09-17 11:02:54 51°14.425 2°43.004 243.2 9.9 244 19.8
2009-09-17 11:03:54 51°14.354 2°42.774 243 9.6 244 19.7
2009-09-17 11:04:54 51°14.283 2°42.548 243.7 9.4 239 19.6
2009-09-17 11:05:54 51°14.211 2°42.324 239.8 9.6 238 19.6
2009-09-17 11:06:54 51°14.136 2°42.104 241.1 9.7 237 19.5
2009-09-17 11:07:54 51°14.064 2°41.879 240.6 9.5 240 19.7
2009-09-17 11:08:54 51°13.992 2°41.656 243.4 9.4 242 20.1
2009-09-17 11:09:54 51°13.921 2°41.43 244.2 9.7 238 19.5
2009-09-17 11:10:54 51°13.85 2°41.205 243 9.5 237 19.4
2009-09-17 11:11:54 51°13.753 2°41.008 227.6 9.6 221 19.1
2009-09-17 11:12:54 51°13.641 2°40.829 228 9.4 227 19
2009-09-17 11:13:54 51°13.528 2°40.653 226.6 9.5 229 18.4
2009-09-17 11:14:53 51°13.418 2°40.474 228.4 9.4 221 17.5
2009-09-17 11:15:54 51°13.3 2°40.301 225.2 9.4 226 16.4
2009-09-17 11:16:54 51°13.181 2°40.129 225.1 9.8 225 17.1
2009-09-17 11:17:54 51°13.065 2°39.956 224.7 9.3 227 15.6
2009-09-17 11:18:54 51°12.949 2°39.784 225.3 9.7 229 15.7
2009-09-17 11:19:54 51°12.836 2°39.611 226.4 9.1 226 15.3
2009-09-17 11:20:54 51°12.724 2°39.436 227.7 9.4 232 15.3
2009-09-17 11:21:54 51°12.607 2°39.268 224.3 9.6 218 16.2
2009-09-17 11:22:54 51°12.492 2°39.096 227.1 9.4 219 16
2009-09-17 11:23:54 51°12.379 2°38.919 225.2 9.6 228 16.1
2009-09-17 11:24:54 51°12.265 2°38.742 223.2 9.8 224 16
2009-09-17 11:25:54 51°12.148 2°38.571 224.7 9.7 217 16
2009-09-17 11:26:54 51°12.032 2°38.397 223 9.7 226 16.2
2009-09-17 11:27:54 51°11.912 2°38.232 221.5 9.5 218 16.1
2009-09-17 11:28:54 51°11.79 2°38.07 219.3 9.6 213 16.4
2009-09-17 11:29:54 51°11.668 2°37.9 222.4 9.9 223 16.2
2009-09-17 11:30:54 51°11.542 2°37.734 221.5 9.7 222 16
2009-09-17 11:31:54 51°11.416 2°37.568 222.6 9.6 220 15.6
2009-09-17 11:32:54 51°11.292 2°37.403 219.1 9.9 217 15.8
2009-09-17 11:33:54 51°11.166 2°37.246 220.2 9.7 219 14.9
2009-09-17 11:34:54 51°11.042 2°37.086 222.2 9.7 219 14.6
2009-09-17 11:35:54 51°10.921 2°36.916 220.8 9.6 220 13.8
2009-09-17 11:36:54 51°10.796 2°36.759 215 9.4 207 12.9
2009-09-17 11:37:54 51°10.641 2°36.684 197.5 9.6 191 12.2
2009-09-17 11:38:54 51°10.477 2°36.676 182.9 10.4 169 11.5
2009-09-17 11:39:54 51°10.308 2°36.741 173.5 10.7 163 18.2
2009-09-17 11:40:54 51°10.141 2°36.808 176.2 10.5 169 20.6
2009-09-17 11:41:54 51°9.969 2°36.858 182 10.5 172 20.4
2009-09-17 11:42:54 51°9.795 2°36.877 185.3 10.5 181 19
2009-09-17 11:43:54 51°9.623 2°36.901 184.5 10.4 176 18.5
2009-09-17 11:44:54 51°9.47 2°36.931 174.3 6.6 163 18.5
2009-09-17 11:45:54 51°9.405 2°36.961 207.5 2.8 184 17.7
2009-09-17 11:46:54 51°9.393 2°36.922 274.8 1.7 296 17.7
2009-09-17 11:47:54 51°9.418 2°36.887 299.1 2.8 318 17.3
2009-09-17 11:48:54 51°9.464 2°36.834 312.6 3.7 328 18.6
2009-09-17 11:49:54 51°9.508 2°36.789 303.4 2.8 323 18.7
2009-09-17 11:50:54 51°9.547 2°36.745 307.8 2.7 327 17.2
2009-09-17 11:51:54 51°9.587 2°36.709 310.2 2.9 332 18.5
2009-09-17 11:53:05 51°9.639 2°36.674 316.9 2.9 340 19.2
2009-09-17 11:54:05 51°9.686 2°36.648 320.2 2.8 340 19.8
2009-09-17 11:55:05 51°9.732 2°36.619 317.9 3.1 340 19.3
2009-09-17 11:56:05 51°9.78 2°36.591 321.7 3 335 19.1
2009-09-17 11:57:05 51°9.827 2°36.56 324.7 3.1 338 19.9
2009-09-17 11:58:05 51°9.875 2°36.531 324.9 3.1 342 20.1
2009-09-17 11:59:05 51°9.923 2°36.505 324.9 3.1 343 20.1
2009-09-17 12:00:05 51°9.972 2°36.483 329.6 3 349 20.2
2009-09-17 12:01:05 51°10.025 2°36.473 342.9 3.2 357 20.2
2009-09-17 12:02:05 51°10.077 2°36.486 12.4 3 21 20.5
2009-09-17 12:03:05 51°10.119 2°36.528 25.8 3 34 20.5
2009-09-17 12:04:05 51°10.163 2°36.573 25.2 3.4 34 20
2009-09-17 12:05:05 51°10.205 2°36.635 44.8 3.2 50 20.1
2009-09-17 12:06:05 51°10.235 2°36.702 45.7 2.7 57 19.4
2009-09-17 12:07:05 51°10.265 2°36.762 38.9 2.9 49 19.5
2009-09-17 12:08:05 51°10.296 2°36.824 50.2 3.1 58 18.7
2009-09-17 12:09:05 51°10.314 2°36.904 77.9 3.3 74 19.2
2009-09-17 12:10:05 51°10.326 2°36.994 77.3 3.6 84 18.9
2009-09-17 12:11:05 51°10.332 2°37.085 86.1 3.5 82 19.9
2009-09-17 12:12:05 51°10.336 2°37.179 89 3.5 85 19.9
2009-09-17 12:13:05 51°10.339 2°37.272 89.4 3.6 86 19.8
2009-09-17 12:14:05 51°10.342 2°37.36 89.7 3.1 86 20.2
2009-09-17 12:15:05 51°10.342 2°37.44 91.9 3.1 88 19.7
2009-09-17 12:16:05 51°10.341 2°37.518 90.7 3 91 19.9
2009-09-17 12:17:05 51°10.342 2°37.596 87.7 2.9 87 19.8
2009-09-17 12:18:05 51°10.344 2°37.674 86.4 3 87 20.2
2009-09-17 12:19:05 51°10.346 2°37.754 88 3 90 20.1
2009-09-17 12:20:05 51°10.344 2°37.832 86.9 2.9 97 20.4
2009-09-17 12:21:05 51°10.344 2°37.908 88.5 2.7 87 19.5
2009-09-17 12:22:05 51°10.343 2°37.977 89 2.7 93 20.2
2009-09-17 12:23:05 51°10.342 2°38.046 86.8 2.8 89 19.4
2009-09-17 12:24:05 51°10.346 2°38.131 84.7 3.4 89 19.2
2009-09-17 12:25:05 51°10.344 2°38.222 102.4 3.4 103 18.9
2009-09-17 12:26:05 51°10.317 2°38.301 144.7 3.3 131 18.4
2009-09-17 12:27:05 51°10.275 2°38.354 165.9 3.2 147 18.2
2009-09-17 12:28:05 51°10.23 2°38.384 187 2.7 167 18
2009-09-17 12:29:05 51°10.197 2°38.375 227.8 1.2 210 17.7
2009-09-17 12:30:05 51°10.182 2°38.369 228.8 0.8 191 18.2
2009-09-17 12:31:05 51°10.17 2°38.372 225.8 0.8 151 18.4
2009-09-17 12:32:05 51°10.161 2°38.378 226.5 0.5 164 18.3
2009-09-17 12:33:05 51°10.153 2°38.384 228.8 0.5 152 18.5
2009-09-17 12:34:05 51°10.145 2°38.355 269.7 2.5 283 18.4
2009-09-17 12:35:05 51°10.181 2°38.311 316.9 2.2 342 18.1
2009-09-17 12:36:05 51°10.206 2°38.307 319.2 1.3 2 17.8
2009-09-17 12:37:05 51°10.26 2°38.306 359.5 5.4 15 18.2
2009-09-17 12:38:05 51°10.329 2°38.438 59.6 7.8 59 18.3
2009-09-17 12:39:05 51°10.4 2°38.629 61.5 8.6 63 18.3
2009-09-17 12:40:05 51°10.458 2°38.838 66.1 8.6 67 18.8
2009-09-17 12:41:05 51°10.517 2°39.04 63.7 8.1 65 18.2
2009-09-17 12:42:05 51°10.574 2°39.228 63.4 6.2 65 17.3
2009-09-17 12:43:05 51°10.607 2°39.33 56.9 3.1 69 17.3
2009-09-17 12:44:05 51°10.621 2°39.387 58.7 1.9 77 17.2
2009-09-17 12:45:05 51°10.633 2°39.448 69.7 3.3 75 17.2
2009-09-17 12:46:05 51°10.663 2°39.598 70.8 8.3 70 16.6
2009-09-17 12:47:05 51°10.719 2°39.845 71.4 10.8 70 16.1
2009-09-17 12:48:05 51°10.785 2°40.136 71.2 11.9 71 15.8
2009-09-17 12:49:05 51°10.853 2°40.433 70.6 11.9 68 15
2009-09-17 12:50:05 51°10.93 2°40.725 67.8 11.9 66 14.5
2009-09-17 12:51:05 51°11.008 2°41.02 68.6 12.2 67 14.1
2009-09-17 12:52:05 51°11.087 2°41.316 67.9 12.2 67 14.2
2009-09-17 12:53:05 51°11.166 2°41.613 68.5 12 67 13.6
2009-09-17 12:54:05 51°11.243 2°41.908 68.8 12.1 67 14
2009-09-17 12:55:30 51°11.351 2°42.321 67.2 11.9 66 13.6
2009-09-17 12:56:30 51°11.429 2°42.611 69.3 11.8 68 13.2
2009-09-17 12:57:30 51°11.488 2°42.908 74.7 11.6 75 12.6
2009-09-17 12:58:30 51°11.533 2°43.21 78.5 11.9 75 13
2009-09-17 12:59:30 51°11.575 2°43.516 78.7 11.8 79 13.4
2009-09-17 13:00:30 51°11.614 2°43.821 78.8 11.7 77 13.5
2009-09-17 13:01:30 51°11.659 2°44.123 77 11.7 77 13.3
2009-09-17 13:02:30 51°11.71 2°44.427 76.2 11.9 77 14.2
2009-09-17 13:03:30 51°11.757 2°44.731 77.9 11.7 76 14.6
2009-09-17 13:04:30 51°11.799 2°45.036 78.2 11.9 76 14.6
2009-09-17 13:05:30 51°11.839 2°45.341 78.9 11.9 79 14.2
2009-09-17 13:06:30 51°11.879 2°45.648 79.2 11.9 80 14.8
2009-09-17 13:07:30 51°11.923 2°45.955 78.1 11.8 76 14.4
2009-09-17 13:08:30 51°11.967 2°46.26 78.3 11.7 74 14.2
2009-09-17 13:09:30 51°12.011 2°46.563 78.5 11.7 76 14.5
2009-09-17 13:10:30 51°12.052 2°46.866 78.2 11.8 76 14.4
2009-09-17 13:11:30 51°12.095 2°47.166 75.6 11.7 72 14.1
2009-09-17 13:12:30 51°12.169 2°47.452 64.7 11.7 63 14.3
2009-09-17 13:13:30 51°12.261 2°47.721 60.3 11.6 60 14.6
2009-09-17 13:14:30 51°12.36 2°47.986 60.1 11.8 57 14.1
2009-09-17 13:15:30 51°12.451 2°48.259 65 11.7 64 13.8
2009-09-17 13:16:30 51°12.535 2°48.538 65.5 11.7 65 14
2009-09-17 13:17:30 51°12.618 2°48.817 65.3 11.7 64 13.2
2009-09-17 13:18:30 51°12.71 2°49.091 61.9 11.7 60 13.8
2009-09-17 13:19:30 51°12.803 2°49.362 62.5 11.6 61 13.3
2009-09-17 13:20:30 51°12.895 2°49.632 62.7 11.5 63 13
2009-09-17 13:21:30 51°12.987 2°49.899 62 11.6 61 13.2
2009-09-17 13:22:30 51°13.081 2°50.17 62.5 11.7 62 13
2009-09-17 13:23:30 51°13.172 2°50.442 62.5 11.6 62 12.6
2009-09-17 13:24:30 51°13.263 2°50.713 62.8 11.7 62 13
2009-09-17 13:25:30 51°13.356 2°50.983 62.1 11.5 63 12.8
2009-09-17 13:26:30 51°13.447 2°51.252 63.3 11.4 61 12.4
2009-09-17 13:27:30 51°13.538 2°51.518 61.8 11.6 60 12.8
2009-09-17 13:28:30 51°13.642 2°51.775 57.1 11.7 55 12.1
2009-09-17 13:29:30 51°13.747 2°52.029 58.1 11.5 58 11.9
2009-09-17 13:30:30 51°13.852 2°52.287 58.5 11.4 58 11.7
2009-09-17 13:31:30 51°13.951 2°52.547 60.7 11.6 58 12
2009-09-17 13:32:30 51°14.038 2°52.818 64.7 11.5 63 12.1
2009-09-17 13:33:30 51°14.122 2°53.091 65 11.4 64 11.8
2009-09-17 13:34:30 51°14.207 2°53.358 64.4 11.2 62 11.3
2009-09-17 13:35:30 51°14.293 2°53.623 64 11.3 65 11.3
2009-09-17 13:36:30 51°14.374 2°53.894 69.1 11.3 71 11
2009-09-17 13:37:30 51°14.418 2°54.186 80.8 11.4 77 11
2009-09-17 13:38:30 51°14.436 2°54.488 90.3 11.5 91 11.6
2009-09-17 13:39:30 51°14.415 2°54.784 104.3 11 106 11.3
2009-09-17 13:40:30 51°14.345 2°55.049 112.7 10.6 116 11.6
2009-09-17 13:41:30 51°14.242 2°55.274 128.4 9.8 130 12
2009-09-17 13:42:34 51°14.109 2°55.424 154.7 8.9 154 12.1
2009-09-17 13:43:34 51°13.981 2°55.522 154.5 7.5 154 -999
2009-09-17 13:44:34 51°13.866 2°55.61 153.2 7.7 153 -999
2009-09-17 13:45:34 51°13.759 2°55.711 138.1 6.6 140 -999
2009-09-17 13:46:34 51°13.706 2°55.816 116.3 4.2 118 -999
2009-09-17 13:47:34 51°13.678 2°55.908 109.7 3.1 114 -999
2009-09-17 13:48:34 51°13.667 2°55.949 120.3 1 116 -999
2009-09-17 13:49:34 51°13.662 2°55.96 129 0.1 42 -999
2009-09-17 13:50:34 51°13.662 2°55.96 130.8 -999 84 -999